Search for airport 
image banner adimage banner adimage banner ad
image banner ad

KBVI - Beaver County

Located in Beaver Falls, United States

ICAO - BVI, IATA - BFP

Data provided by Airmate  

General information

Coordinates: N40°46'21" W80°23'29"
Elevation is 1253 feet MSL.
Magnetic variation is -07° East
View others Airports in Pennsylvania

Operational data

Special qualification required
Current time UTC:
Current local time:
Weather
METAR: KBVI 091255Z AUTO 13003KT 7SM RA BKN022 OVC029 05/04 A3002 RMK AO2 T00510037
TAF: KBVI 091120Z 0912/1012 16005KT P6SM -RA OVC040 FM091400 12008KT 4SM -RA OVC030 FM091600 09008KT 3SM RA OVC007 FM092200 36007KT 4SM -SHRA OVC007 FM100400 35005KT 4SM BR OVC003 FM101000 32005KT P6SM BKN010
View NOTAMs / SUP AIP / TFR affecting this airport [VIEW]
Communications frequencies: [VIEW]

Runways:

RWY identifierQFULength (ft)Width (ft)SurfaceLDA (ft)
1094°4501100ASPH
28274°4501100ASPH

Airport contact information

Address: Beaver Falls United States

Other aviation service providers

Flight schools

Moore Aviation, Inc.

Moore Aviation, Inc.
info@mooreaviation.com+1(724)843-4800

Aviation Certification And Education Solutions Inc

Aviation Certification And Education Solutions Inc
fly@acesbvi.com+1(724)891-2237

Satellite view of KBVI